Time;durP1;ratioP1;P1;durP2;ratioP2;P2;SDS_P1;SDS_P2;PMS_P1;PMS_P2;Temp;Humidity;BMP_temperature;BMP_pressure;BME280_temperature;BME280_humidity;BME280_pressure;Samples;Min_cycle;Max_cycle;Signal;HPM_P1;HPM_P2
2024/01/30 00:00:34;;;;;;;;;;;;;;;8.10;39.43;102253.16;4475218;32;32615;-85
2024/01/30 00:03:02;;;;;;;;;;;;;;;8.19;39.39;102254.00;4465475;32;34621;-85
2024/01/30 00:05:29;;;;;;;;;;;;;;;8.15;39.17;102244.16;4483446;32;34145;-85
2024/01/30 00:07:56;;;;;;;;;;;;;;;8.62;38.32;102247.72;4478536;32;34299;-85
2024/01/30 00:10:24;;;;;;;;;;;;;;;8.58;38.12;102250.78;4472674;32;33920;-83
2024/01/30 00:12:52;;;;;;;;;;;;;;;8.36;38.42;102248.72;4473675;32;34492;-86
2024/01/30 00:15:20;;;;;;;;;;;;;;;8.50;38.31;102246.56;4470131;32;33465;-84
2024/01/30 00:17:47;;;;;;;;;;;;;;;8.15;38.86;102247.69;4468507;32;34624;-84
2024/01/30 00:20:15;;;;;;;;;;;;;;;8.34;38.60;102239.94;4478708;32;34296;-84
2024/01/30 00:22:42;;;;;;;;;;;;;;;7.99;39.18;102250.47;4480283;32;34043;-85
2024/01/30 00:25:09;;;;;;;;;;;;;;;8.12;38.91;102246.47;4475226;32;33497;-85
2024/01/30 00:27:37;;;;;;;;;;;;;;;7.93;39.17;102255.03;4483728;32;34092;-84
2024/01/30 00:30:04;;;;;;;;;;;;;;;8.00;38.97;102256.56;4478059;32;34939;-84
2024/01/30 00:32:32;;;;;;;;;;;;;;;8.10;38.88;102263.50;4478364;32;34887;-85
2024/01/30 00:34:59;;;;;;;;;;;;;;;8.04;38.80;102262.12;4472043;32;34074;-85
2024/01/30 00:37:27;;;;;;;;;;;;;;;7.77;39.49;102264.69;4469903;32;33743;-85
2024/01/30 00:39:54;;;;;;;;;;;;;;;8.20;38.58;102266.16;4470289;32;34839;-85
2024/01/30 00:42:23;;;;;;;;;;;;;;;7.94;39.07;102274.94;4478620;32;34595;-84
2024/01/30 00:44:50;;;;;;;;;;;;;;;7.59;39.46;102272.50;4474878;32;33416;-84
2024/01/30 00:47:18;;;;;;;;;;;;;;;7.90;39.10;102275.44;4474057;32;34191;-85
2024/01/30 00:49:45;;;;;;;;;;;;;;;7.82;39.37;102277.28;4470503;32;34664;-84
2024/01/30 00:52:13;;;;;;;;;;;;;;;7.85;39.37;102271.50;4472965;32;34553;-85
2024/01/30 00:54:40;;;;;;;;;;;;;;;7.54;39.81;102273.72;4473640;32;33422;-85
2024/01/30 00:57:08;;;;;;;;;;;;;;;7.73;39.57;102267.75;4458229;32;32503;-85
2024/01/30 00:59:35;;;;;;;;;;;;;;;7.81;39.59;102269.38;4470271;32;33843;-84
2024/01/30 01:02:04;;;;;;;;;;;;;;;7.55;39.79;102267.81;4474847;32;34226;-83
2024/01/30 01:04:31;;;;;;;;;;;;;;;7.79;39.64;102256.31;4476741;32;33862;-85
2024/01/30 01:06:58;;;;;;;;;;;;;;;7.85;39.50;102246.59;4472070;32;34239;-84
2024/01/30 01:09:26;;;;;;;;;;;;;;;7.78;39.60;102258.75;4466196;32;33419;-86
2024/01/30 01:11:54;;;;;;;;;;;;;;;7.86;39.49;102257.81;4472095;32;34086;-84
2024/01/30 01:14:21;;;;;;;;;;;;;;;7.89;39.34;102258.09;4472436;32;33974;-85
2024/01/30 01:16:49;;;;;;;;;;;;;;;7.65;39.48;102257.59;4481779;32;34781;-84
2024/01/30 01:19:16;;;;;;;;;;;;;;;7.86;39.12;102252.62;4459149;32;33709;-84
2024/01/30 01:21:43;;;;;;;;;;;;;;;7.57;39.29;102253.37;4474161;32;35237;-85
2024/01/30 01:24:11;;;;;;;;;;;;;;;8.16;38.51;102249.47;4474176;32;33360;-84
2024/01/30 01:26:38;;;;;;;;;;;;;;;7.81;38.78;102254.78;4469287;32;34834;-84
2024/01/30 01:29:09;;;;;;;;;;;;;;;7.61;39.35;102246.81;4473488;32;33758;-84
2024/01/30 01:31:45;;;;;;;;;;;;;;;7.58;39.30;102241.38;4469829;32;34837;-84
2024/01/30 01:34:13;;;;;;;;;;;;;;;7.96;38.89;102242.44;4471334;32;33443;-85
2024/01/30 01:36:40;;;;;;;;;;;;;;;7.89;39.14;102242.63;4479453;32;34235;-86
2024/01/30 01:39:09;;;;;;;;;;;;;;;7.77;39.30;102244.06;4471092;32;34285;-85
2024/01/30 01:41:36;;;;;;;;;;;;;;;7.78;39.13;102232.94;4474948;32;33481;-83
2024/01/30 01:44:04;;;;;;;;;;;;;;;7.97;38.69;102238.19;4473979;32;34244;-85
2024/01/30 01:46:32;;;;;;;;;;;;;;;7.83;38.65;102231.72;4471429;32;34848;-85
2024/01/30 01:49:00;;;;;;;;;;;;;;;7.71;38.75;102233.13;4467000;32;33984;-85
2024/01/30 01:51:28;;;;;;;;;;;;;;;7.97;38.41;102235.59;4471743;32;34316;-84
2024/01/30 01:53:55;;;;;;;;;;;;;;;7.83;38.55;102231.72;4465022;32;33595;-83
2024/01/30 01:56:23;;;;;;;;;;;;;;;7.93;38.86;102229.25;4461881;32;34212;-84
2024/01/30 01:58:50;;;;;;;;;;;;;;;7.86;39.07;102232.94;4459880;32;34832;-85
2024/01/30 02:01:18;;;;;;;;;;;;;;;7.84;39.19;102228.38;4466384;32;34924;-85
2024/01/30 02:03:46;;;;;;;;;;;;;;;7.92;38.96;102232.59;4461455;32;34183;-85
2024/01/30 02:06:14;;;;;;;;;;;;;;;7.99;38.67;102229.81;4463277;32;32489;-85
2024/01/30 02:08:41;;;;;;;;;;;;;;;7.89;38.66;102237.47;4469803;32;35192;-85
2024/01/30 02:11:10;;;;;;;;;;;;;;;7.95;38.55;102227.72;4467753;32;34509;-84
2024/01/30 02:13:37;;;;;;;;;;;;;;;7.89;38.65;102234.88;4469657;32;33445;-85
2024/01/30 02:16:04;;;;;;;;;;;;;;;7.76;38.80;102224.16;4476831;32;33956;-85
2024/01/30 02:18:32;;;;;;;;;;;;;;;8.05;38.34;102229.47;4473237;32;34117;-85
2024/01/30 02:21:17;;;;;;;;;;;;;;;7.89;38.45;102232.31;4478495;32;33957;-84
2024/01/30 02:23:46;;;;;;;;;;;;;;;7.92;38.51;102231.66;4474565;32;33506;-85
2024/01/30 02:26:13;;;;;;;;;;;;;;;8.01;38.15;102225.69;4471739;32;35031;-84
2024/01/30 02:28:41;;;;;;;;;;;;;;;7.86;38.18;102219.09;4472859;32;34211;-85
2024/01/30 02:31:08;;;;;;;;;;;;;;;7.98;38.18;102222.84;4458247;32;33820;-84
2024/01/30 02:33:35;;;;;;;;;;;;;;;7.72;38.54;102227.22;4472928;32;34114;-83
2024/01/30 02:36:03;;;;;;;;;;;;;;;7.79;38.40;102224.47;4462401;32;34048;-84
2024/01/30 02:38:30;;;;;;;;;;;;;;;7.84;38.32;102223.22;4472726;32;34916;-85
2024/01/30 02:40:58;;;;;;;;;;;;;;;7.80;38.19;102228.84;4468940;32;34991;-85
2024/01/30 02:43:25;;;;;;;;;;;;;;;7.73;38.42;102223.88;4472191;32;33670;-85
2024/01/30 02:45:52;;;;;;;;;;;;;;;7.64;38.59;102229.97;4468297;32;33993;-84
2024/01/30 02:48:20;;;;;;;;;;;;;;;7.67;38.83;102232.84;4473973;32;33963;-85
2024/01/30 02:50:47;;;;;;;;;;;;;;;7.86;38.46;102232.94;4468750;32;34328;-84
2024/01/30 02:53:15;;;;;;;;;;;;;;;7.68;38.51;102226.91;4473796;32;34140;-84
2024/01/30 02:55:42;;;;;;;;;;;;;;;7.80;38.33;102229.78;4478193;32;34253;-85
2024/01/30 02:58:09;;;;;;;;;;;;;;;7.88;37.65;102231.41;4470295;32;34299;-84
2024/01/30 03:00:37;;;;;;;;;;;;;;;7.55;38.45;102223.97;4457376;32;34545;-84
2024/01/30 03:03:04;;;;;;;;;;;;;;;7.75;38.09;102227.53;4474771;32;34288;-84
2024/01/30 03:05:32;;;;;;;;;;;;;;;7.42;38.48;102221.84;4473620;32;34137;-85
2024/01/30 03:07:59;;;;;;;;;;;;;;;7.42;38.57;102220.97;4467999;32;35084;-83
2024/01/30 03:10:27;;;;;;;;;;;;;;;7.65;38.06;102226.63;4473318;32;34159;-85
2024/01/30 03:12:54;;;;;;;;;;;;;;;7.18;38.87;102220.37;4478402;32;32182;-85
2024/01/30 03:15:22;;;;;;;;;;;;;;;7.40;38.79;102223.37;4471679;32;35035;-84
2024/01/30 03:17:50;;;;;;;;;;;;;;;6.99;39.28;102229.66;4470725;32;34155;-84
2024/01/30 03:20:17;;;;;;;;;;;;;;;7.07;39.45;102228.75;4475859;32;34136;-84
2024/01/30 03:22:45;;;;;;;;;;;;;;;7.18;39.23;102225.53;4472283;32;33625;-85
2024/01/30 03:25:12;;;;;;;;;;;;;;;7.38;38.63;102226.56;4476612;32;34631;-85
2024/01/30 03:27:40;;;;;;;;;;;;;;;7.41;38.34;102229.44;4476877;32;34258;-84
2024/01/30 03:30:07;;;;;;;;;;;;;;;7.49;38.23;102233.66;4469479;32;34768;-84
2024/01/30 03:32:35;;;;;;;;;;;;;;;7.21;38.41;102225.84;4467436;32;33698;-85
2024/01/30 03:35:02;;;;;;;;;;;;;;;7.35;38.18;102229.75;4469079;32;33853;-85
2024/01/30 03:37:30;;;;;;;;;;;;;;;7.18;38.42;102225.53;4476051;32;33640;-84
2024/01/30 03:39:57;;;;;;;;;;;;;;;7.02;38.52;102227.41;4474225;32;34186;-85
2024/01/30 03:42:24;;;;;;;;;;;;;;;7.26;38.15;102222.06;4465794;32;34218;-85
2024/01/30 03:44:53;;;;;;;;;;;;;;;7.28;37.95;102217.97;4475601;32;33923;-83
2024/01/30 03:47:21;;;;;;;;;;;;;;;7.32;37.95;102215.66;4468698;32;33747;-85
2024/01/30 03:49:48;;;;;;;;;;;;;;;7.18;37.95;102212.66;4462176;32;34235;-85
2024/01/30 03:52:15;;;;;;;;;;;;;;;7.16;37.92;102211.59;4470022;32;33439;-84
2024/01/30 03:54:43;;;;;;;;;;;;;;;7.08;38.20;102203.13;4471007;32;34979;-85
2024/01/30 03:57:11;;;;;;;;;;;;;;;7.18;38.21;102201.44;4480056;32;33824;-85
2024/01/30 03:59:38;;;;;;;;;;;;;;;6.79;38.81;102208.00;4477889;32;34869;-84
2024/01/30 04:02:05;;;;;;;;;;;;;;;7.39;37.81;102205.19;4444759;32;32914;-85
2024/01/30 04:04:33;;;;;;;;;;;;;;;7.22;37.95;102207.06;4471152;32;34718;-85
2024/01/30 04:07:01;;;;;;;;;;;;;;;7.42;37.74;102210.66;4482199;32;34387;-84
2024/01/30 04:09:28;;;;;;;;;;;;;;;7.30;37.93;102215.50;4461886;32;33257;-85
2024/01/30 04:11:56;;;;;;;;;;;;;;;7.34;38.00;102211.56;4474394;32;34252;-86
2024/01/30 04:14:23;;;;;;;;;;;;;;;7.29;37.98;102199.13;4472880;32;34630;-84
2024/01/30 04:16:50;;;;;;;;;;;;;;;7.09;38.19;102202.38;4474003;32;33804;-85
2024/01/30 04:19:18;;;;;;;;;;;;;;;7.32;38.11;102202.75;4474085;32;33098;-84
2024/01/30 04:21:45;;;;;;;;;;;;;;;7.20;38.10;102198.25;4481499;32;33598;-85
2024/01/30 04:24:12;;;;;;;;;;;;;;;7.22;38.25;102193.25;4478436;32;34855;-84
2024/01/30 04:26:40;;;;;;;;;;;;;;;6.67;38.95;102196.50;4473681;32;34253;-84
2024/01/30 04:29:07;;;;;;;;;;;;;;;6.83;38.93;102197.25;4462806;32;34467;-85
2024/01/30 04:31:36;;;;;;;;;;;;;;;7.38;37.88;102200.78;4474990;32;33471;-84
2024/01/30 04:34:03;;;;;;;;;;;;;;;7.17;38.23;102203.13;4471896;32;34170;-84
2024/01/30 04:36:31;;;;;;;;;;;;;;;7.20;37.99;102198.25;4473289;32;35016;-85
2024/01/30 04:38:58;;;;;;;;;;;;;;;7.27;37.72;102205.81;4458832;32;33826;-84
2024/01/30 04:41:26;;;;;;;;;;;;;;;7.27;37.51;102200.66;4472471;32;32119;-85
2024/01/30 04:43:53;;;;;;;;;;;;;;;7.45;37.24;102203.19;4457455;32;32459;-84
2024/01/30 04:46:20;;;;;;;;;;;;;;;6.97;37.94;102213.13;4473361;32;34391;-84
2024/01/30 04:48:48;;;;;;;;;;;;;;;7.24;37.71;102202.97;4472360;32;34944;-84
2024/01/30 04:51:17;;;;;;;;;;;;;;;7.10;37.96;102211.00;4469975;32;34471;-84
2024/01/30 04:53:44;;;;;;;;;;;;;;;7.18;37.75;102210.06;4467700;32;33499;-84
2024/01/30 04:56:12;;;;;;;;;;;;;;;7.22;37.90;102216.44;4449648;32;33572;-85
2024/01/30 04:58:40;;;;;;;;;;;;;;;7.09;38.18;102216.94;4462335;32;33708;-83
2024/01/30 05:01:08;;;;;;;;;;;;;;;7.31;37.90;102216.44;4458871;32;33637;-84
2024/01/30 05:03:35;;;;;;;;;;;;;;;7.26;37.70;102213.37;4446362;32;33628;-85
2024/01/30 05:06:04;;;;;;;;;;;;;;;7.07;38.02;102215.88;4458709;32;35225;-85
2024/01/30 05:08:32;;;;;;;;;;;;;;;7.07;37.98;102221.03;4462950;32;35264;-85
2024/01/30 05:11:00;;;;;;;;;;;;;;;7.14;37.73;102223.44;4464498;32;34254;-84
2024/01/30 05:13:27;;;;;;;;;;;;;;;7.22;37.67;102217.38;4450443;32;33811;-85
2024/01/30 05:15:55;;;;;;;;;;;;;;;7.12;37.86;102224.94;4465263;32;34734;-83
2024/01/30 05:18:23;;;;;;;;;;;;;;;6.94;38.29;102229.22;4474065;32;35141;-85
2024/01/30 05:20:50;;;;;;;;;;;;;;;7.08;38.09;102233.16;4474314;32;33221;-86
2024/01/30 05:23:20;;;;;;;;;;;;;;;6.98;38.22;102240.75;4470750;32;33998;-84
2024/01/30 05:25:48;;;;;;;;;;;;;;;6.89;38.50;102233.00;4466522;32;33976;-86
2024/01/30 05:28:15;;;;;;;;;;;;;;;7.09;38.40;102242.72;4476315;32;34401;-84
2024/01/30 05:30:43;;;;;;;;;;;;;;;6.87;38.78;102243.16;4474823;32;33028;-84
2024/01/30 05:33:12;;;;;;;;;;;;;;;7.14;38.20;102243.16;4475384;32;34338;-84
2024/01/30 05:35:39;;;;;;;;;;;;;;;6.95;38.36;102243.00;4474021;32;33996;-84
2024/01/30 05:38:06;;;;;;;;;;;;;;;7.03;38.13;102247.22;4465908;32;34013;-84
2024/01/30 05:40:34;;;;;;;;;;;;;;;6.96;38.36;102242.25;4463805;32;33275;-83
2024/01/30 05:43:02;;;;;;;;;;;;;;;6.83;38.45;102251.34;4468587;32;34350;-86
2024/01/30 05:45:30;;;;;;;;;;;;;;;7.11;37.89;102246.34;4467487;32;34197;-85
2024/01/30 05:47:58;;;;;;;;;;;;;;;7.01;38.48;102253.91;4473888;32;34243;-85
2024/01/30 05:50:26;;;;;;;;;;;;;;;6.89;38.65;102246.81;4480479;32;33913;-85
2024/01/30 05:52:53;;;;;;;;;;;;;;;7.01;38.41;102247.13;4460800;32;33912;-84
2024/01/30 05:55:21;;;;;;;;;;;;;;;7.02;38.51;102253.16;4467416;32;34036;-84
2024/01/30 05:57:48;;;;;;;;;;;;;;;7.17;38.06;102248.62;4467737;32;34395;-83
2024/01/30 06:00:16;;;;;;;;;;;;;;;7.21;38.11;102246.47;4471563;32;33661;-83
2024/01/30 06:02:44;;;;;;;;;;;;;;;7.39;37.77;102236.13;4455073;32;34896;-85
2024/01/30 06:05:11;;;;;;;;;;;;;;;7.30;37.72;102241.28;4458751;32;32248;-84
2024/01/30 06:07:38;;;;;;;;;;;;;;;7.25;37.46;102248.59;4479326;32;34673;-84
2024/01/30 06:10:06;;;;;;;;;;;;;;;7.05;38.01;102243.13;4474397;32;33790;-82
2024/01/30 06:12:34;;;;;;;;;;;;;;;7.34;37.40;102247.66;4472256;32;33514;-84
2024/01/30 06:15:02;;;;;;;;;;;;;;;6.98;37.99;102245.91;4457112;32;33660;-84
2024/01/30 06:17:30;;;;;;;;;;;;;;;6.82;38.29;102254.69;4469635;32;34428;-86
2024/01/30 06:19:57;;;;;;;;;;;;;;;7.15;37.91;102251.03;4473012;32;33048;-84
2024/01/30 06:22:25;;;;;;;;;;;;;;;7.14;38.00;102249.19;4472680;32;34829;-84
2024/01/30 06:24:53;;;;;;;;;;;;;;;7.07;38.13;102247.72;4468066;32;33993;-84
2024/01/30 06:27:20;;;;;;;;;;;;;;;7.13;38.30;102251.63;4472505;32;34948;-82
2024/01/30 06:29:47;;;;;;;;;;;;;;;7.03;37.99;102249.81;4474993;32;33387;-85
2024/01/30 06:32:15;;;;;;;;;;;;;;;6.79;38.42;102254.38;4475148;32;34104;-84
2024/01/30 06:34:44;;;;;;;;;;;;;;;7.03;38.23;102254.97;4468022;32;34830;-83
2024/01/30 06:37:11;;;;;;;;;;;;;;;6.87;38.53;102263.75;4468006;32;34396;-85
2024/01/30 06:39:39;;;;;;;;;;;;;;;6.93;38.26;102257.41;4470876;32;33464;-86
2024/01/30 06:42:06;;;;;;;;;;;;;;;6.95;38.37;102255.88;4460659;32;33620;-82
2024/01/30 06:44:34;;;;;;;;;;;;;;;7.03;38.35;102257.53;4466970;32;35239;-84
2024/01/30 06:47:01;;;;;;;;;;;;;;;6.52;39.21;102262.84;4475183;32;34053;-83
2024/01/30 06:49:28;;;;;;;;;;;;;;;6.28;40.02;102266.44;4469364;32;33348;-84
2024/01/30 06:51:56;;;;;;;;;;;;;;;6.80;39.31;102263.00;4475474;32;34818;-85
2024/01/30 06:54:23;;;;;;;;;;;;;;;6.58;39.47;102271.16;4474741;32;33982;-83
2024/01/30 06:56:51;;;;;;;;;;;;;;;6.64;39.70;102268.31;4470272;32;34132;-86
2024/01/30 06:59:18;;;;;;;;;;;;;;;6.66;39.42;102269.34;4473238;32;33504;-84
2024/01/30 07:01:45;;;;;;;;;;;;;;;6.71;39.68;102263.00;4471646;32;34773;-83
2024/01/30 07:04:14;;;;;;;;;;;;;;;7.01;39.05;102269.38;4461983;32;34029;-86
2024/01/30 07:06:41;;;;;;;;;;;;;;;7.05;39.00;102268.91;4476417;32;34166;-84
2024/01/30 07:09:09;;;;;;;;;;;;;;;6.83;39.44;102271.06;4474939;32;34080;-87
2024/01/30 07:11:36;;;;;;;;;;;;;;;7.02;39.12;102261.78;4469897;32;33829;-84
2024/01/30 07:14:04;;;;;;;;;;;;;;;7.39;38.66;102267.06;4476777;32;33925;-85
2024/01/30 07:16:32;;;;;;;;;;;;;;;7.28;38.85;102264.37;4473249;32;34683;-83
2024/01/30 07:18:59;;;;;;;;;;;;;;;7.39;38.53;102261.91;4472602;32;33638;-84
2024/01/30 07:21:28;;;;;;;;;;;;;;;7.50;38.67;102266.44;4468743;32;33607;-83
2024/01/30 07:23:56;;;;;;;;;;;;;;;7.15;39.15;102263.91;4470653;32;35129;-82
2024/01/30 07:26:23;;;;;;;;;;;;;;;7.51;38.57;102262.19;4470244;32;34501;-84
2024/01/30 07:28:50;;;;;;;;;;;;;;;7.39;38.95;102267.97;4475482;32;34051;-82
2024/01/30 07:31:20;;;;;;;;;;;;;;;7.03;39.46;102266.22;4477739;32;34994;-83
2024/01/30 07:33:48;;;;;;;;;;;;;;;7.14;42.61;102271.50;4473825;32;33940;-85
2024/01/30 07:36:15;;;;;;;;;;;;;;;7.80;40.58;102272.72;4474963;32;34904;-85
2024/01/30 07:38:43;;;;;;;;;;;;;;;7.79;40.29;102263.16;4479776;32;33757;-84
2024/01/30 07:41:10;;;;;;;;;;;;;;;7.59;40.58;102262.16;4477299;32;34344;-83
2024/01/30 07:43:38;;;;;;;;;;;;;;;7.97;39.80;102257.16;4479713;32;34171;-82
2024/01/30 07:46:06;;;;;;;;;;;;;;;7.96;39.91;102255.34;4475329;32;34511;-85
2024/01/30 07:48:34;;;;;;;;;;;;;;;8.17;39.75;102255.53;4459879;32;33295;-83
2024/01/30 07:51:02;;;;;;;;;;;;;;;7.58;40.75;102252.59;4478587;32;32844;-86
2024/01/30 07:53:30;;;;;;;;;;;;;;;7.61;40.90;102250.34;4471783;32;34904;-86
2024/01/30 07:55:57;;;;;;;;;;;;;;;8.33;39.79;102257.91;4464194;32;34140;-85
2024/01/30 07:58:27;;;;;;;;;;;;;;;8.52;39.77;102255.34;4470521;32;33231;-82
2024/01/30 08:01:12;;;;;;;;;;;;;;;8.20;40.52;102253.25;4476585;32;34684;-84
2024/01/30 08:03:41;;;;;;;;;;;;;;;8.50;40.23;102251.72;4471918;32;33987;-84
2024/01/30 08:06:09;;;;;;;;;;;;;;;8.38;40.63;102248.88;4471566;32;34885;-83
2024/01/30 08:08:37;;;;;;;;;;;;;;;8.47;41.12;102254.94;4481534;32;32889;-86
2024/01/30 08:11:05;;;;;;;;;;;;;;;8.48;41.35;102253.25;4467514;32;34075;-84
2024/01/30 08:13:32;;;;;;;;;;;;;;;8.72;41.11;102258.09;4463672;32;33986;-83
2024/01/30 08:16:00;;;;;;;;;;;;;;;8.94;40.86;102260.94;4465727;32;34302;-84
2024/01/30 08:18:28;;;;;;;;;;;;;;;9.25;40.63;102250.78;4471778;32;34369;-83
2024/01/30 08:20:55;;;;;;;;;;;;;;;9.31;41.17;102263.38;4471406;32;34018;-85
2024/01/30 08:23:22;;;;;;;;;;;;;;;9.50;40.90;102253.87;4475254;32;34254;-85
2024/01/30 08:25:50;;;;;;;;;;;;;;;9.64;40.95;102258.59;4471059;32;34242;-85
2024/01/30 08:28:17;;;;;;;;;;;;;;;9.92;40.74;102261.00;4469530;32;33639;-85
2024/01/30 08:30:47;;;;;;;;;;;;;;;10.32;40.14;102259.28;4469920;32;33310;-83
2024/01/30 08:33:15;;;;;;;;;;;;;;;10.05;40.96;102257.78;4470015;32;34915;-85
2024/01/30 08:35:42;;;;;;;;;;;;;;;10.28;40.53;102266.66;4473443;32;34395;-86
2024/01/30 08:38:12;;;;;;;;;;;;;;;10.22;40.93;102270.50;4468717;32;32962;-86
2024/01/30 08:40:39;;;;;;;;;;;;;;;10.52;40.82;102268.72;4474499;32;34703;-83
2024/01/30 08:43:09;;;;;;;;;;;;;;;10.32;41.20;102274.81;4461582;32;34877;-87
2024/01/30 08:45:37;;;;;;;;;;;;;;;10.69;40.91;102282.22;4469012;32;33970;-86
2024/01/30 08:48:05;;;;;;;;;;;;;;;10.95;40.62;102266.22;4457848;32;34373;-84
2024/01/30 08:50:33;;;;;;;;;;;;;;;10.86;41.10;102275.88;4479886;32;34208;-83
2024/01/30 08:53:00;;;;;;;;;;;;;;;11.26;40.55;102268.75;4469746;32;33671;-86
2024/01/30 08:55:28;;;;;;;;;;;;;;;11.03;41.01;102265.19;4474321;32;35172;-87
2024/01/30 08:57:56;;;;;;;;;;;;;;;11.15;41.23;102258.41;4473247;32;33574;-84
2024/01/30 09:00:23;;;;;;;;;;;;;;;11.19;41.05;102257.88;4457774;32;33878;-83
2024/01/30 09:02:51;;;;;;;;;;;;;;;11.43;40.79;102265.81;4476349;32;34139;-83
2024/01/30 09:05:18;;;;;;;;;;;;;;;11.45;41.25;102259.06;4474044;32;34294;-86
2024/01/30 09:07:45;;;;;;;;;;;;;;;11.42;41.46;102261.44;4481549;32;33330;-83
2024/01/30 09:10:13;;;;;;;;;;;;;;;11.57;41.69;102259.16;4469200;32;33627;-85
2024/01/30 09:12:43;;;;;;;;;;;;;;;11.32;42.29;102256.25;4468843;32;35812;-83
2024/01/30 09:15:11;;;;;;;;;;;;;;;11.63;41.71;102245.75;4477829;32;33967;-85
2024/01/30 09:17:38;;;;;;;;;;;;;;;11.87;41.74;102255.50;4473225;32;34158;-84
2024/01/30 09:20:06;;;;;;;;;;;;;;;11.95;41.56;102257.03;4472229;32;34202;-88
2024/01/30 09:22:33;;;;;;;;;;;;;;;12.08;41.38;102258.00;4469610;32;33860;-83
2024/01/30 09:25:01;;;;;;;;;;;;;;;12.31;40.73;102258.09;4469760;32;35050;-87
2024/01/30 09:27:28;;;;;;;;;;;;;;;12.29;40.81;102253.56;4460443;32;33404;-84
2024/01/30 09:29:55;;;;;;;;;;;;;;;12.03;41.52;102248.94;4481314;32;34341;-85
2024/01/30 09:32:23;;;;;;;;;;;;;;;12.52;40.92;102247.53;4469613;32;33775;-85
2024/01/30 09:34:51;;;;;;;;;;;;;;;12.25;41.33;102252.44;4469149;32;34886;-85
2024/01/30 09:37:18;;;;;;;;;;;;;;;12.76;40.73;102244.16;4479184;32;33472;-84
2024/01/30 09:39:46;;;;;;;;;;;;;;;12.36;41.36;102251.56;4471863;32;34288;-86
2024/01/30 09:42:28;;;;;;;;;;;;;;;12.54;41.28;102248.56;4473685;32;34954;-82
2024/01/30 09:44:55;;;;;;;;;;;;;;;12.80;41.14;102253.09;4469124;32;33760;-84
2024/01/30 09:47:22;;;;;;;;;;;;;;;13.54;39.27;102249.06;4455240;32;34099;-85
2024/01/30 09:49:50;;;;;;;;;;;;;;;13.14;40.03;102243.50;4482036;32;33747;-83
2024/01/30 09:52:18;;;;;;;;;;;;;;;13.23;39.80;102245.91;4461233;32;34010;-83
2024/01/30 09:54:45;;;;;;;;;;;;;;;13.51;39.13;102251.41;4469612;32;34092;-85
2024/01/30 09:57:13;;;;;;;;;;;;;;;13.01;40.33;102240.78;4468881;32;33563;-83
2024/01/30 09:59:41;;;;;;;;;;;;;;;13.35;39.45;102244.22;4475596;32;34165;-83
2024/01/30 10:02:09;;;;;;;;;;;;;;;13.49;39.27;102253.00;4466725;32;33400;-87
2024/01/30 10:04:36;;;;;;;;;;;;;;;13.08;39.99;102247.37;4473758;32;35064;-83
2024/01/30 10:07:04;;;;;;;;;;;;;;;13.33;39.72;102245.78;4475989;32;34817;-84
2024/01/30 10:09:32;;;;;;;;;;;;;;;13.32;39.58;102253.50;4468651;32;34343;-86
2024/01/30 10:11:59;;;;;;;;;;;;;;;13.18;39.73;102250.75;4469179;32;33467;-82
2024/01/30 10:14:26;;;;;;;;;;;;;;;13.26;39.99;102247.81;4468640;32;33884;-85
2024/01/30 10:16:54;;;;;;;;;;;;;;;13.42;39.73;102250.75;4469371;32;33178;-83
2024/01/30 10:19:22;;;;;;;;;;;;;;;13.47;39.52;102243.28;4468643;32;33983;-82
2024/01/30 10:21:49;;;;;;;;;;;;;;;13.62;39.09;102244.41;4482235;32;33824;-83
2024/01/30 10:24:17;;;;;;;;;;;;;;;13.49;39.50;102240.00;4469062;32;33969;-83
2024/01/30 10:26:44;;;;;;;;;;;;;;;13.52;39.46;102234.09;4469187;32;33354;-86
2024/01/30 10:29:12;;;;;;;;;;;;;;;13.48;39.75;102233.00;4469318;32;34937;-85
2024/01/30 10:31:39;;;;;;;;;;;;;;;13.55;39.52;102231.72;4469535;32;34924;-83
2024/01/30 10:34:07;;;;;;;;;;;;;;;13.74;39.35;102233.94;4481684;32;34488;-86
2024/01/30 10:36:46;;;;;;;;;;;;;;;14.08;38.99;102234.59;4469484;32;33272;-83
2024/01/30 10:39:14;;;;;;;;;;;;;;;13.95;39.31;102230.22;4454747;32;33773;-85
2024/01/30 10:41:44;;;;;;;;;;;;;;;13.98;39.59;102231.25;4467403;32;34553;-84
2024/01/30 10:44:13;;;;;;;;;;;;;;;13.72;40.44;102230.31;4474319;32;34644;-85
2024/01/30 10:46:41;;;;;;;;;;;;;;;14.28;39.81;102217.72;4465977;32;33576;-84
2024/01/30 10:49:08;;;;;;;;;;;;;;;13.81;39.70;102220.56;4463342;32;33822;-86
2024/01/30 10:51:35;;;;;;;;;;;;;;;14.31;39.00;102210.13;4475635;32;34335;-82
2024/01/30 10:54:03;;;;;;;;;;;;;;;14.09;39.55;102206.84;4472177;32;34024;-83
2024/01/30 10:56:30;;;;;;;;;;;;;;;14.24;39.88;102207.88;4455522;32;33308;-84
2024/01/30 10:58:57;;;;;;;;;;;;;;;14.46;39.32;102202.41;4463873;32;33630;-83
2024/01/30 11:01:25;;;;;;;;;;;;;;;14.90;38.85;102193.16;4465359;32;34115;-83
2024/01/30 11:03:52;;;;;;;;;;;;;;;14.61;37.84;102197.38;4472119;32;34419;-85
2024/01/30 11:06:23;;;;;;;;;;;;;;;15.40;37.30;102190.31;4457817;32;33021;-83
2024/01/30 11:09:04;;;;;;;;;;;;;;;14.92;37.69;102194.16;4468751;32;33894;-86
2024/01/30 11:11:31;;;;;;;;;;;;;;;14.64;37.74;102186.22;4471254;32;34782;-85
2024/01/30 11:14:00;;;;;;;;;;;;;;;14.32;38.20;102185.84;4468905;32;35224;-84
2024/01/30 11:16:30;;;;;;;;;;;;;;;14.18;38.14;102176.19;4472502;32;34089;-84
2024/01/30 11:19:00;;;;;;;;;;;;;;;14.46;37.69;102173.72;4479416;32;33336;-84
2024/01/30 11:21:27;;;;;;;;;;;;;;;14.23;38.20;102180.00;4459253;32;34569;-85
2024/01/30 11:23:54;;;;;;;;;;;;;;;14.41;38.05;102167.31;4481429;32;33787;-82
2024/01/30 11:26:24;;;;;;;;;;;;;;;14.04;39.13;102171.72;4464710;32;34058;-83
2024/01/30 11:28:54;;;;;;;;;;;;;;;14.12;39.12;102165.34;4459961;32;34882;-84
2024/01/30 11:31:21;;;;;;;;;;;;;;;15.39;37.84;102162.37;4470027;32;33979;-82
2024/01/30 11:33:52;;;;;;;;;;;;;;;14.04;39.06;102167.44;4475475;32;34237;-83
2024/01/30 11:36:21;;;;;;;;;;;;;;;13.85;39.68;102173.09;4458774;32;34434;-83
2024/01/30 11:38:48;;;;;;;;;;;;;;;14.74;39.11;102160.84;4454696;32;34466;-83
2024/01/30 11:41:16;;;;;;;;;;;;;;;15.24;37.86;102158.78;4475196;32;33951;-83
2024/01/30 11:43:50;;;;;;;;;;;;;;;15.08;37.88;102157.81;4469899;32;34833;-84
2024/01/30 11:46:18;;;;;;;;;;;;;;;14.63;37.84;102156.63;4469923;32;34049;-85
2024/01/30 11:48:45;;;;;;;;;;;;;;;14.20;39.13;102158.97;4482727;32;33931;-83
2024/01/30 11:51:13;;;;;;;;;;;;;;;15.62;37.46;102157.69;4475235;32;34710;-83
2024/01/30 11:53:41;;;;;;;;;;;;;;;15.50;36.47;102153.50;4475375;32;34767;-82
2024/01/30 11:56:08;;;;;;;;;;;;;;;15.98;35.29;102145.13;4471505;32;33384;-84
2024/01/30 11:58:35;;;;;;;;;;;;;;;15.41;36.50;102144.19;4475000;32;33621;-84
2024/01/30 12:01:03;;;;;;;;;;;;;;;15.34;36.40;102135.09;4466256;32;32252;-83
2024/01/30 12:03:31;;;;;;;;;;;;;;;16.08;35.93;102129.16;4463450;32;34268;-83
2024/01/30 12:05:59;;;;;;;;;;;;;;;15.86;36.57;102132.22;4466268;32;34047;-86
2024/01/30 12:08:27;;;;;;;;;;;;;;;15.99;35.69;102124.25;4468997;32;33712;-86
2024/01/30 12:10:58;;;;;;;;;;;;;;;15.91;36.11;102118.56;4455155;32;34747;-85
2024/01/30 12:13:26;;;;;;;;;;;;;;;15.79;36.27;102120.47;4462297;32;34549;-85
2024/01/30 12:15:59;;;;;;;;;;;;;;;15.92;34.12;102115.16;4464976;32;34104;-84
2024/01/30 12:18:26;;;;;;;;;;;;;;;15.98;34.99;102103.28;4463975;32;34052;-84
2024/01/30 12:20:58;;;;;;;;;;;;;;;16.26;34.51;102108.41;4473052;32;33868;-85
2024/01/30 12:23:26;;;;;;;;;;;;;;;16.48;34.66;102107.97;4475651;32;34596;-86
2024/01/30 12:25:54;;;;;;;;;;;;;;;16.50;33.94;102103.72;4456811;32;34201;-87
2024/01/30 12:28:21;;;;;;;;;;;;;;;16.77;32.85;102100.87;4484996;32;34780;-86
2024/01/30 12:30:49;;;;;;;;;;;;;;;17.34;32.64;102094.44;4472989;32;34583;-85
2024/01/30 12:33:17;;;;;;;;;;;;;;;17.51;32.26;102102.31;4479381;32;34597;-83
2024/01/30 12:35:45;;;;;;;;;;;;;;;17.30;32.39;102102.94;4442726;32;32493;-86
2024/01/30 12:38:28;;;;;;;;;;;;;;;17.75;31.54;102101.00;4468894;32;34228;-85
2024/01/30 12:40:56;;;;;;;;;;;;;;;18.00;30.81;102094.41;4476750;32;35293;-88
2024/01/30 12:43:23;;;;;;;;;;;;;;;17.99;30.13;102087.37;4462847;32;32543;-86
2024/01/30 12:46:05;;;;;;;;;;;;;;;18.10;30.61;102082.66;4456481;32;33017;-84